sensor_id;sensor_type;location;lat;lon;timestamp;temperature;humidity
6879;DHT22;3478;51.462;7.338;2022-08-19T00:03:06;19.90;99.90
6879;DHT22;3478;51.462;7.338;2022-08-19T00:08:08;19.90;99.90
6879;DHT22;3478;51.462;7.338;2022-08-19T00:13:10;19.90;99.90
6879;DHT22;3478;51.462;7.338;2022-08-19T00:18:13;19.90;99.90
6879;DHT22;3478;51.462;7.338;2022-08-19T00:23:15;19.90;99.90
6879;DHT22;3478;51.462;7.338;2022-08-19T00:28:17;19.80;99.90
6879;DHT22;3478;51.462;7.338;2022-08-19T00:33:22;19.80;99.90
6879;DHT22;3478;51.462;7.338;2022-08-19T00:38:24;19.70;99.90
6879;DHT22;3478;51.462;7.338;2022-08-19T00:43:27;19.60;99.90
6879;DHT22;3478;51.462;7.338;2022-08-19T00:48:31;19.60;99.90
6879;DHT22;3478;51.462;7.338;2022-08-19T00:53:34;19.60;99.90
6879;DHT22;3478;51.462;7.338;2022-08-19T00:58:36;19.50;99.90
6879;DHT22;3478;51.462;7.338;2022-08-19T01:03:39;19.40;99.90
6879;DHT22;3478;51.462;7.338;2022-08-19T01:08:41;19.50;99.90
6879;DHT22;3478;51.462;7.338;2022-08-19T01:13:43;19.60;99.90
6879;DHT22;3478;51.462;7.338;2022-08-19T01:18:47;19.50;99.90
6879;DHT22;3478;51.462;7.338;2022-08-19T01:23:51;19.30;99.90
6879;DHT22;3478;51.462;7.338;2022-08-19T01:28:55;19.20;99.90
6879;DHT22;3478;51.462;7.338;2022-08-19T01:33:59;19.10;99.90
6879;DHT22;3478;51.462;7.338;2022-08-19T01:39:08;19.20;99.90
6879;DHT22;3478;51.462;7.338;2022-08-19T01:44:11;19.20;99.90
6879;DHT22;3478;51.462;7.338;2022-08-19T01:49:13;19.10;99.90
6879;DHT22;3478;51.462;7.338;2022-08-19T01:54:18;19.10;99.90
6879;DHT22;3478;51.462;7.338;2022-08-19T01:59:21;19.00;99.90
6879;DHT22;3478;51.462;7.338;2022-08-19T02:04:24;19.00;99.90
6879;DHT22;3478;51.462;7.338;2022-08-19T02:09:28;19.00;99.90
6879;DHT22;3478;51.462;7.338;2022-08-19T02:14:30;19.00;99.90
6879;DHT22;3478;51.462;7.338;2022-08-19T02:19:32;18.90;99.90
6879;DHT22;3478;51.462;7.338;2022-08-19T02:24:35;19.00;99.90
6879;DHT22;3478;51.462;7.338;2022-08-19T02:29:37;19.00;99.90
6879;DHT22;3478;51.462;7.338;2022-08-19T02:34:39;19.00;99.90
6879;DHT22;3478;51.462;7.338;2022-08-19T02:39:42;18.90;99.90
6879;DHT22;3478;51.462;7.338;2022-08-19T02:44:44;18.80;99.90
6879;DHT22;3478;51.462;7.338;2022-08-19T02:49:46;18.80;99.90
6879;DHT22;3478;51.462;7.338;2022-08-19T02:54:50;18.80;99.90
6879;DHT22;3478;51.462;7.338;2022-08-19T02:59:52;18.90;99.90
6879;DHT22;3478;51.462;7.338;2022-08-19T03:04:54;18.90;99.90
6879;DHT22;3478;51.462;7.338;2022-08-19T03:09:57;18.80;99.90
6879;DHT22;3478;51.462;7.338;2022-08-19T03:14:59;18.70;99.90
6879;DHT22;3478;51.462;7.338;2022-08-19T03:20:02;18.70;99.90
6879;DHT22;3478;51.462;7.338;2022-08-19T03:25:06;18.60;99.90
6879;DHT22;3478;51.462;7.338;2022-08-19T03:30:09;18.60;99.90
6879;DHT22;3478;51.462;7.338;2022-08-19T03:35:11;18.70;99.90
6879;DHT22;3478;51.462;7.338;2022-08-19T03:40:14;18.70;99.90
6879;DHT22;3478;51.462;7.338;2022-08-19T03:45:16;18.70;99.90
6879;DHT22;3478;51.462;7.338;2022-08-19T03:50:19;18.60;99.90
6879;DHT22;3478;51.462;7.338;2022-08-19T03:55:22;18.60;99.90
6879;DHT22;3478;51.462;7.338;2022-08-19T04:00:24;18.50;99.90
6879;DHT22;3478;51.462;7.338;2022-08-19T04:05:27;18.40;99.90
6879;DHT22;3478;51.462;7.338;2022-08-19T04:10:34;18.40;99.90
6879;DHT22;3478;51.462;7.338;2022-08-19T04:15:39;18.30;99.90
6879;DHT22;3478;51.462;7.338;2022-08-19T04:20:45;18.30;99.90
6879;DHT22;3478;51.462;7.338;2022-08-19T04:25:49;18.30;99.90
6879;DHT22;3478;51.462;7.338;2022-08-19T04:30:53;18.30;99.90
6879;DHT22;3478;51.462;7.338;2022-08-19T04:35:55;18.30;99.90
6879;DHT22;3478;51.462;7.338;2022-08-19T04:41:02;18.30;99.90
6879;DHT22;3478;51.462;7.338;2022-08-19T04:46:21;18.40;99.90
6879;DHT22;3478;51.462;7.338;2022-08-19T04:51:23;18.40;99.90
6879;DHT22;3478;51.462;7.338;2022-08-19T04:56:27;18.50;99.90
6879;DHT22;3478;51.462;7.338;2022-08-19T05:01:31;18.50;99.90
6879;DHT22;3478;51.462;7.338;2022-08-19T05:06:34;18.70;99.90
6879;DHT22;3478;51.462;7.338;2022-08-19T05:11:38;18.80;99.90
6879;DHT22;3478;51.462;7.338;2022-08-19T05:16:40;18.70;99.90
6879;DHT22;3478;51.462;7.338;2022-08-19T05:21:42;18.80;99.90
6879;DHT22;3478;51.462;7.338;2022-08-19T05:27:03;18.80;99.90
6879;DHT22;3478;51.462;7.338;2022-08-19T05:32:06;18.90;99.90
6879;DHT22;3478;51.462;7.338;2022-08-19T05:37:11;19.00;99.90
6879;DHT22;3478;51.462;7.338;2022-08-19T05:42:14;19.10;99.90
6879;DHT22;3478;51.462;7.338;2022-08-19T05:47:17;19.30;99.90
6879;DHT22;3478;51.462;7.338;2022-08-19T05:52:20;19.30;99.90
6879;DHT22;3478;51.462;7.338;2022-08-19T05:57:24;19.40;99.90
6879;DHT22;3478;51.462;7.338;2022-08-19T06:02:26;19.50;99.90
6879;DHT22;3478;51.462;7.338;2022-08-19T06:07:28;19.60;99.90
6879;DHT22;3478;51.462;7.338;2022-08-19T06:12:32;19.70;99.90
6879;DHT22;3478;51.462;7.338;2022-08-19T06:17:34;19.90;99.90
6879;DHT22;3478;51.462;7.338;2022-08-19T06:22:37;20.00;99.90
6879;DHT22;3478;51.462;7.338;2022-08-19T06:27:41;20.10;99.90
6879;DHT22;3478;51.462;7.338;2022-08-19T06:32:43;20.20;99.90
6879;DHT22;3478;51.462;7.338;2022-08-19T06:37:45;20.30;99.90
6879;DHT22;3478;51.462;7.338;2022-08-19T06:42:48;20.40;99.90
6879;DHT22;3478;51.462;7.338;2022-08-19T06:47:50;20.60;99.90
6879;DHT22;3478;51.462;7.338;2022-08-19T06:52:56;20.60;99.90
6879;DHT22;3478;51.462;7.338;2022-08-19T06:58:01;20.60;99.90
6879;DHT22;3478;51.462;7.338;2022-08-19T07:03:04;20.80;99.90
6879;DHT22;3478;51.462;7.338;2022-08-19T07:08:06;21.10;99.90
6879;DHT22;3478;51.462;7.338;2022-08-19T07:13:09;21.30;99.90
6879;DHT22;3478;51.462;7.338;2022-08-19T07:18:11;21.30;99.90
6879;DHT22;3478;51.462;7.338;2022-08-19T07:23:14;21.30;99.90
6879;DHT22;3478;51.462;7.338;2022-08-19T07:28:17;21.20;99.90
6879;DHT22;3478;51.462;7.338;2022-08-19T07:33:19;21.30;99.90
6879;DHT22;3478;51.462;7.338;2022-08-19T07:38:21;21.40;99.90
6879;DHT22;3478;51.462;7.338;2022-08-19T07:43:24;21.50;99.90
6879;DHT22;3478;51.462;7.338;2022-08-19T07:48:27;21.60;99.90
6879;DHT22;3478;51.462;7.338;2022-08-19T07:53:31;21.80;99.90
6879;DHT22;3478;51.462;7.338;2022-08-19T07:58:38;21.90;99.90
6879;DHT22;3478;51.462;7.338;2022-08-19T08:03:41;22.10;99.90
6879;DHT22;3478;51.462;7.338;2022-08-19T08:09:03;22.30;99.90
6879;DHT22;3478;51.462;7.338;2022-08-19T08:14:23;22.30;99.90
6879;DHT22;3478;51.462;7.338;2022-08-19T08:19:27;22.40;99.90
6879;DHT22;3478;51.462;7.338;2022-08-19T08:24:30;22.70;99.90
6879;DHT22;3478;51.462;7.338;2022-08-19T08:29:34;22.80;99.90
6879;DHT22;3478;51.462;7.338;2022-08-19T08:34:36;22.70;99.90
6879;DHT22;3478;51.462;7.338;2022-08-19T08:39:38;22.70;99.90
6879;DHT22;3478;51.462;7.338;2022-08-19T08:44:47;22.80;99.90
6879;DHT22;3478;51.462;7.338;2022-08-19T08:49:54;22.90;99.90
6879;DHT22;3478;51.462;7.338;2022-08-19T08:54:59;23.00;99.90
6879;DHT22;3478;51.462;7.338;2022-08-19T09:00:07;23.10;99.90
6879;DHT22;3478;51.462;7.338;2022-08-19T09:05:11;23.20;99.90
6879;DHT22;3478;51.462;7.338;2022-08-19T09:10:19;23.30;99.90
6879;DHT22;3478;51.462;7.338;2022-08-19T09:15:29;23.40;99.90
6879;DHT22;3478;51.462;7.338;2022-08-19T09:20:33;23.50;99.90
6879;DHT22;3478;51.462;7.338;2022-08-19T09:25:35;24.00;99.90
6879;DHT22;3478;51.462;7.338;2022-08-19T09:30:41;24.20;99.90
6879;DHT22;3478;51.462;7.338;2022-08-19T09:35:43;24.50;99.90
6879;DHT22;3478;51.462;7.338;2022-08-19T09:40:45;25.10;99.90
6879;DHT22;3478;51.462;7.338;2022-08-19T09:45:48;25.10;99.90
6879;DHT22;3478;51.462;7.338;2022-08-19T09:50:50;25.40;99.90
6879;DHT22;3478;51.462;7.338;2022-08-19T09:55:53;25.10;99.90
6879;DHT22;3478;51.462;7.338;2022-08-19T10:00:58;25.00;99.90
6879;DHT22;3478;51.462;7.338;2022-08-19T10:06:02;24.90;99.90
6879;DHT22;3478;51.462;7.338;2022-08-19T10:11:05;25.50;99.90
6879;DHT22;3478;51.462;7.338;2022-08-19T10:16:10;25.70;99.90
6879;DHT22;3478;51.462;7.338;2022-08-19T10:21:14;26.40;99.90
6879;DHT22;3478;51.462;7.338;2022-08-19T10:26:19;26.50;99.90
6879;DHT22;3478;51.462;7.338;2022-08-19T10:31:24;26.30;99.90
6879;DHT22;3478;51.462;7.338;2022-08-19T10:36:29;26.20;99.90
6879;DHT22;3478;51.462;7.338;2022-08-19T10:41:33;26.70;99.90
6879;DHT22;3478;51.462;7.338;2022-08-19T10:46:39;26.70;99.90
6879;DHT22;3478;51.462;7.338;2022-08-19T10:51:42;26.30;99.90
6879;DHT22;3478;51.462;7.338;2022-08-19T10:57:01;26.80;99.90
6879;DHT22;3478;51.462;7.338;2022-08-19T11:02:08;27.00;99.90
6879;DHT22;3478;51.462;7.338;2022-08-19T11:07:10;26.90;99.90
6879;DHT22;3478;51.462;7.338;2022-08-19T11:12:12;26.60;99.90
6879;DHT22;3478;51.462;7.338;2022-08-19T11:17:17;26.10;99.90
6879;DHT22;3478;51.462;7.338;2022-08-19T11:22:19;26.20;99.90
6879;DHT22;3478;51.462;7.338;2022-08-19T11:27:21;27.80;99.90
6879;DHT22;3478;51.462;7.338;2022-08-19T11:32:24;28.70;99.30
6879;DHT22;3478;51.462;7.338;2022-08-19T11:37:26;29.40;99.20
6879;DHT22;3478;51.462;7.338;2022-08-19T11:42:28;28.80;98.40
6879;DHT22;3478;51.462;7.338;2022-08-19T11:47:49;28.10;99.80
6879;DHT22;3478;51.462;7.338;2022-08-19T11:52:54;28.30;99.90
6879;DHT22;3478;51.462;7.338;2022-08-19T11:57:56;28.70;98.40
6879;DHT22;3478;51.462;7.338;2022-08-19T12:02:59;29.00;98.90
6879;DHT22;3478;51.462;7.338;2022-08-19T12:08:01;29.00;98.40
6879;DHT22;3478;51.462;7.338;2022-08-19T12:13:04;29.50;96.90
6879;DHT22;3478;51.462;7.338;2022-08-19T12:18:09;30.30;95.10
6879;DHT22;3478;51.462;7.338;2022-08-19T12:23:11;29.80;94.70
6879;DHT22;3478;51.462;7.338;2022-08-19T12:28:13;28.60;95.80
6879;DHT22;3478;51.462;7.338;2022-08-19T12:33:17;29.30;95.70
6879;DHT22;3478;51.462;7.338;2022-08-19T12:38:20;30.20;92.90
6879;DHT22;3478;51.462;7.338;2022-08-19T12:43:23;29.90;92.00
6879;DHT22;3478;51.462;7.338;2022-08-19T12:48:26;30.00;92.00
6879;DHT22;3478;51.462;7.338;2022-08-19T12:53:29;31.20;90.70
6879;DHT22;3478;51.462;7.338;2022-08-19T12:58:31;31.60;89.00
6879;DHT22;3478;51.462;7.338;2022-08-19T13:03:36;32.70;85.60
6879;DHT22;3478;51.462;7.338;2022-08-19T13:08:38;32.10;82.20
6879;DHT22;3478;51.462;7.338;2022-08-19T13:13:42;31.20;82.90
6879;DHT22;3478;51.462;7.338;2022-08-19T13:18:46;30.70;83.50
6879;DHT22;3478;51.462;7.338;2022-08-19T13:23:49;31.00;83.40
6879;DHT22;3478;51.462;7.338;2022-08-19T13:28:51;32.60;79.00
6879;DHT22;3478;51.462;7.338;2022-08-19T13:34:12;33.90;74.90
6879;DHT22;3478;51.462;7.338;2022-08-19T13:39:14;34.30;69.20
6879;DHT22;3478;51.462;7.338;2022-08-19T13:44:17;33.60;71.80
6879;DHT22;3478;51.462;7.338;2022-08-19T13:49:21;33.80;68.00
6879;DHT22;3478;51.462;7.338;2022-08-19T13:54:23;33.70;68.10
6879;DHT22;3478;51.462;7.338;2022-08-19T13:59:25;33.40;67.10
6879;DHT22;3478;51.462;7.338;2022-08-19T14:04:28;33.30;68.90
6879;DHT22;3478;51.462;7.338;2022-08-19T14:09:30;33.40;67.00
6879;DHT22;3478;51.462;7.338;2022-08-19T14:14:36;34.20;66.30
6879;DHT22;3478;51.462;7.338;2022-08-19T14:19:39;34.90;63.60
6879;DHT22;3478;51.462;7.338;2022-08-19T14:24:41;34.70;61.90
6879;DHT22;3478;51.462;7.338;2022-08-19T14:29:43;32.90;64.30
6879;DHT22;3478;51.462;7.338;2022-08-19T14:34:47;32.50;65.90
6879;DHT22;3478;51.462;7.338;2022-08-19T14:39:49;31.50;66.80
6879;DHT22;3478;51.462;7.338;2022-08-19T14:44:52;31.20;67.70
6879;DHT22;3478;51.462;7.338;2022-08-19T14:49:55;31.70;67.40
6879;DHT22;3478;51.462;7.338;2022-08-19T14:54:57;31.50;67.30
6879;DHT22;3478;51.462;7.338;2022-08-19T14:59:59;30.40;68.10
6879;DHT22;3478;51.462;7.338;2022-08-19T15:05:03;30.00;68.90
6879;DHT22;3478;51.462;7.338;2022-08-19T15:10:07;31.50;67.20
6879;DHT22;3478;51.462;7.338;2022-08-19T15:15:11;31.90;65.60
6879;DHT22;3478;51.462;7.338;2022-08-19T15:20:18;31.90;66.60
6879;DHT22;3478;51.462;7.338;2022-08-19T15:25:21;32.90;65.10
6879;DHT22;3478;51.462;7.338;2022-08-19T15:30:25;32.80;64.70
6879;DHT22;3478;51.462;7.338;2022-08-19T15:35:30;33.70;61.50
6879;DHT22;3478;51.462;7.338;2022-08-19T15:40:32;34.20;61.50
6879;DHT22;3478;51.462;7.338;2022-08-19T15:45:34;34.00;61.00
6879;DHT22;3478;51.462;7.338;2022-08-19T15:50:37;32.00;63.60
6879;DHT22;3478;51.462;7.338;2022-08-19T15:55:42;31.70;64.60
6879;DHT22;3478;51.462;7.338;2022-08-19T16:00:44;32.10;64.10
6879;DHT22;3478;51.462;7.338;2022-08-19T16:06:05;31.50;65.10
6879;DHT22;3478;51.462;7.338;2022-08-19T16:11:28;30.40;65.80
6879;DHT22;3478;51.462;7.338;2022-08-19T16:16:32;29.80;67.50
6879;DHT22;3478;51.462;7.338;2022-08-19T16:21:36;30.80;66.00
6879;DHT22;3478;51.462;7.338;2022-08-19T16:26:40;31.80;65.40
6879;DHT22;3478;51.462;7.338;2022-08-19T16:31:44;31.40;66.20
6879;DHT22;3478;51.462;7.338;2022-08-19T16:36:48;29.90;69.10
6879;DHT22;3478;51.462;7.338;2022-08-19T16:41:50;29.50;69.60
6879;DHT22;3478;51.462;7.338;2022-08-19T16:46:52;29.10;71.20
6879;DHT22;3478;51.462;7.338;2022-08-19T16:51:55;28.90;72.60
6879;DHT22;3478;51.462;7.338;2022-08-19T16:56:57;29.30;72.00
6879;DHT22;3478;51.462;7.338;2022-08-19T17:02:00;30.20;70.00
6879;DHT22;3478;51.462;7.338;2022-08-19T17:07:03;30.90;67.80
6879;DHT22;3478;51.462;7.338;2022-08-19T17:12:06;30.80;67.80
6879;DHT22;3478;51.462;7.338;2022-08-19T17:17:08;30.30;67.50
6879;DHT22;3478;51.462;7.338;2022-08-19T17:22:13;30.10;66.50
6879;DHT22;3478;51.462;7.338;2022-08-19T17:27:15;30.50;66.90
6879;DHT22;3478;51.462;7.338;2022-08-19T17:32:19;29.70;66.10
6879;DHT22;3478;51.462;7.338;2022-08-19T17:37:22;28.40;69.60
6879;DHT22;3478;51.462;7.338;2022-08-19T17:42:24;27.70;71.90
6879;DHT22;3478;51.462;7.338;2022-08-19T17:47:26;27.20;73.90
6879;DHT22;3478;51.462;7.338;2022-08-19T17:52:30;26.80;75.40
6879;DHT22;3478;51.462;7.338;2022-08-19T17:57:32;26.50;76.50
6879;DHT22;3478;51.462;7.338;2022-08-19T18:02:37;26.80;76.00
6879;DHT22;3478;51.462;7.338;2022-08-19T18:07:45;26.80;76.90
6879;DHT22;3478;51.462;7.338;2022-08-19T18:12:48;26.50;78.60
6879;DHT22;3478;51.462;7.338;2022-08-19T18:17:50;26.30;80.10
6879;DHT22;3478;51.462;7.338;2022-08-19T18:22:53;26.20;81.20
6879;DHT22;3478;51.462;7.338;2022-08-19T18:27:58;25.90;82.30
6879;DHT22;3478;51.462;7.338;2022-08-19T18:33:02;25.70;83.90
6879;DHT22;3478;51.462;7.338;2022-08-19T18:38:11;25.60;85.20
6879;DHT22;3478;51.462;7.338;2022-08-19T18:43:31;25.30;87.10
6879;DHT22;3478;51.462;7.338;2022-08-19T18:48:55;25.10;89.30
6879;DHT22;3478;51.462;7.338;2022-08-19T18:54:08;24.80;90.80
6879;DHT22;3478;51.462;7.338;2022-08-19T18:59:12;24.70;91.50
6879;DHT22;3478;51.462;7.338;2022-08-19T19:04:17;24.50;91.80
6879;DHT22;3478;51.462;7.338;2022-08-19T19:09:23;24.50;92.10
6879;DHT22;3478;51.462;7.338;2022-08-19T19:14:27;24.40;92.50
6879;DHT22;3478;51.462;7.338;2022-08-19T19:19:33;24.20;93.60
6879;DHT22;3478;51.462;7.338;2022-08-19T19:24:36;24.10;95.00
6879;DHT22;3478;51.462;7.338;2022-08-19T19:29:39;24.10;95.60
6879;DHT22;3478;51.462;7.338;2022-08-19T19:34:41;24.10;97.20
6879;DHT22;3478;51.462;7.338;2022-08-19T19:39:45;23.90;99.20
6879;DHT22;3478;51.462;7.338;2022-08-19T19:44:49;23.90;99.90
6879;DHT22;3478;51.462;7.338;2022-08-19T19:49:51;23.80;99.90
6879;DHT22;3478;51.462;7.338;2022-08-19T19:54:56;23.70;99.90
6879;DHT22;3478;51.462;7.338;2022-08-19T19:59:58;23.70;99.90
6879;DHT22;3478;51.462;7.338;2022-08-19T20:05:00;23.70;99.90
6879;DHT22;3478;51.462;7.338;2022-08-19T20:10:03;23.60;99.90
6879;DHT22;3478;51.462;7.338;2022-08-19T20:15:06;23.60;99.90
6879;DHT22;3478;51.462;7.338;2022-08-19T20:20:09;23.50;99.90
6879;DHT22;3478;51.462;7.338;2022-08-19T20:25:13;23.30;99.90
6879;DHT22;3478;51.462;7.338;2022-08-19T20:30:18;23.20;99.90
6879;DHT22;3478;51.462;7.338;2022-08-19T20:35:21;23.20;99.90
6879;DHT22;3478;51.462;7.338;2022-08-19T20:40:24;23.20;99.90
6879;DHT22;3478;51.462;7.338;2022-08-19T20:45:26;23.20;99.90
6879;DHT22;3478;51.462;7.338;2022-08-19T20:50:29;23.10;99.90
6879;DHT22;3478;51.462;7.338;2022-08-19T20:55:32;23.10;99.90
6879;DHT22;3478;51.462;7.338;2022-08-19T21:00:34;23.00;99.90
6879;DHT22;3478;51.462;7.338;2022-08-19T21:05:36;23.10;99.90
6879;DHT22;3478;51.462;7.338;2022-08-19T21:10:40;23.10;99.90
6879;DHT22;3478;51.462;7.338;2022-08-19T21:15:44;23.10;99.90
6879;DHT22;3478;51.462;7.338;2022-08-19T21:20:47;23.20;99.90
6879;DHT22;3478;51.462;7.338;2022-08-19T21:25:51;23.20;99.90
6879;DHT22;3478;51.462;7.338;2022-08-19T21:30:54;23.10;99.90
6879;DHT22;3478;51.462;7.338;2022-08-19T21:35:57;23.10;99.90
6879;DHT22;3478;51.462;7.338;2022-08-19T21:41:02;23.10;99.90
6879;DHT22;3478;51.462;7.338;2022-08-19T21:46:04;23.10;99.90
6879;DHT22;3478;51.462;7.338;2022-08-19T21:51:07;23.10;99.90
6879;DHT22;3478;51.462;7.338;2022-08-19T21:56:10;23.00;99.90
6879;DHT22;3478;51.462;7.338;2022-08-19T22:01:12;23.00;99.90
6879;DHT22;3478;51.462;7.338;2022-08-19T22:06:14;23.00;99.90
6879;DHT22;3478;51.462;7.338;2022-08-19T22:11:18;23.00;99.90
6879;DHT22;3478;51.462;7.338;2022-08-19T22:16:21;23.00;99.90
6879;DHT22;3478;51.462;7.338;2022-08-19T22:21:23;22.90;99.90
6879;DHT22;3478;51.462;7.338;2022-08-19T22:26:27;22.90;99.90
6879;DHT22;3478;51.462;7.338;2022-08-19T22:31:29;22.90;99.90
6879;DHT22;3478;51.462;7.338;2022-08-19T22:36:31;22.90;99.90
6879;DHT22;3478;51.462;7.338;2022-08-19T22:41:34;22.80;99.90
6879;DHT22;3478;51.462;7.338;2022-08-19T22:46:37;22.80;99.90
6879;DHT22;3478;51.462;7.338;2022-08-19T22:51:38;22.70;99.90
6879;DHT22;3478;51.462;7.338;2022-08-19T22:56:59;22.70;99.90
6879;DHT22;3478;51.462;7.338;2022-08-19T23:02:01;22.60;99.90
6879;DHT22;3478;51.462;7.338;2022-08-19T23:07:03;22.50;99.90
6879;DHT22;3478;51.462;7.338;2022-08-19T23:12:09;22.50;99.90
6879;DHT22;3478;51.462;7.338;2022-08-19T23:17:13;22.40;99.90
6879;DHT22;3478;51.462;7.338;2022-08-19T23:22:15;22.20;99.90
6879;DHT22;3478;51.462;7.338;2022-08-19T23:27:18;22.10;99.90
6879;DHT22;3478;51.462;7.338;2022-08-19T23:32:38;22.00;99.90
6879;DHT22;3478;51.462;7.338;2022-08-19T23:37:40;21.80;99.90
6879;DHT22;3478;51.462;7.338;2022-08-19T23:42:43;21.60;99.90
6879;DHT22;3478;51.462;7.338;2022-08-19T23:47:46;21.50;99.90
6879;DHT22;3478;51.462;7.338;2022-08-19T23:52:49;21.50;99.90
6879;DHT22;3478;51.462;7.338;2022-08-19T23:57:53;21.20;99.90
